TimeEDT,TemperatureF,Dew PointF,Humidity,Sea Level PressureIn,VisibilityMPH,Wind Direction,Wind SpeedMPH,Gust SpeedMPH,PrecipitationIn,Events,Conditions,WindDirDegrees,DateUTC
12:52 AM,32.0,27.0,82,29.92,10.0,Calm,Calm,-,N/A,,Clear,0,2013-10-25 04:52:00
1:52 AM,36.0,27.0,70,29.94,10.0,WSW,4.6,-,N/A,,Clear,250,2013-10-25 05:52:00
2:52 AM,36.0,26.1,67,29.94,10.0,WSW,4.6,-,N/A,,Partly Cloudy,240,2013-10-25 06:52:00
3:52 AM,37.0,27.0,67,29.94,10.0,WSW,3.5,-,N/A,,Clear,250,2013-10-25 07:52:00
4:52 AM,28.9,26.1,89,29.96,10.0,Calm,Calm,-,N/A,,Clear,0,2013-10-25 08:52:00
5:52 AM,28.0,25.0,88,29.98,10.0,Calm,Calm,-,N/A,,Clear,0,2013-10-25 09:52:00
6:52 AM,27.0,24.1,89,30.00,10.0,Calm,Calm,-,N/A,,Clear,0,2013-10-25 10:52:00
7:52 AM,28.9,27.0,92,30.02,10.0,Calm,Calm,-,N/A,,Clear,0,2013-10-25 11:52:00
8:52 AM,41.0,32.0,70,30.04,10.0,Calm,Calm,-,N/A,,Clear,0,2013-10-25 12:52:00
9:52 AM,46.9,32.0,56,30.04,10.0,West,8.1,-,N/A,,Clear,280,2013-10-25 13:52:00
10:52 AM,-9999,-9999,N/A,30.03,-9999.0,West,10.4,-,N/A,,Clear,270,2013-10-25 14:52:00
11:52 AM,51.1,28.0,41,30.02,10.0,North,-9999.0,-,N/A,,Overcast,0,2013-10-25 15:52:00
12:52 PM,51.1,27.0,39,30.02,-9999.0,WNW,10.4,-,N/A,,Unknown,300,2013-10-25 16:52:00
1:52 PM,52.0,28.0,40,30.01,10.0,NW,10.4,-,N/A,,Mostly Cloudy,310,2013-10-25 17:52:00
2:52 PM,51.1,26.1,38,30.03,10.0,WNW,11.5,17.3,N/A,,Mostly Cloudy,290,2013-10-25 18:52:00
3:52 PM,50.0,25.0,38,30.03,10.0,Variable,6.9,-,N/A,,Scattered Clouds,0,2013-10-25 19:52:00
4:52 PM,50.0,25.0,38,30.04,10.0,NW,6.9,-,N/A,,Clear,310,2013-10-25 20:52:00
5:52 PM,46.0,25.0,44,30.06,10.0,WNW,4.6,-,N/A,,Clear,290,2013-10-25 21:52:00
6:52 PM,36.0,28.0,73,30.09,10.0,West,3.5,-,N/A,,Clear,260,2013-10-25 22:52:00
7:52 PM,39.0,26.1,60,30.11,10.0,West,3.5,-,N/A,,Clear,280,2013-10-25 23:52:00
8:52 PM,41.0,26.1,55,30.14,10.0,NW,4.6,-,N/A,,Clear,310,2013-10-26 00:52:00
9:52 PM,33.1,27.0,78,30.16,10.0,Calm,Calm,-,N/A,,Clear,0,2013-10-26 01:52:00
10:52 PM,28.9,25.0,85,30.17,10.0,Calm,Calm,-,N/A,,Clear,0,2013-10-26 02:52:00
11:52 PM,27.0,24.1,89,30.18,10.0,Calm,Calm,-,N/A,,Clear,0,2013-10-26 03:52:00